createdAt,value
2022-08-22T00:00:33.840Z,10.84
2022-08-22T00:03:00.574Z,10.84
2022-08-22T00:03:09.594Z,10.77
2022-08-22T00:06:15.655Z,10.94
2022-08-22T00:11:57.848Z,11.02
2022-08-22T00:17:14.734Z,11.00
2022-08-22T00:22:34.244Z,11.09
2022-08-22T00:27:51.505Z,11.09
2022-08-22T00:32:58.817Z,11.12
2022-08-22T00:38:13.556Z,11.07
2022-08-22T00:43:43.687Z,10.95
2022-08-22T00:49:17.379Z,10.97
2022-08-22T00:54:20.158Z,11.06
2022-08-22T00:59:28.858Z,11.08
2022-08-22T01:04:52.720Z,10.99
2022-08-22T01:10:20.393Z,10.99
2022-08-22T01:15:27.879Z,11.02
2022-08-22T01:20:52.263Z,11.05
2022-08-22T01:26:09.898Z,11.12
2022-08-22T01:31:45.078Z,11.36
2022-08-22T01:37:11.926Z,11.33
2022-08-22T01:42:42.486Z,11.43
2022-08-22T01:47:54.192Z,11.59
2022-08-22T01:53:15.563Z,11.77
2022-08-22T01:58:22.362Z,12.15
2022-08-22T02:03:33.525Z,12.58
2022-08-22T02:09:21.140Z,12.77
2022-08-22T02:14:44.606Z,13.45
2022-08-22T02:20:10.108Z,13.73
2022-08-22T02:25:21.524Z,13.80
2022-08-22T02:30:48.968Z,14.41
2022-08-22T02:36:00.420Z,14.35
2022-08-22T02:41:27.359Z,14.31
2022-08-22T02:46:42.394Z,14.23
2022-08-22T02:52:03.747Z,13.98
2022-08-22T02:57:13.072Z,13.84
2022-08-22T03:02:37.123Z,13.58
2022-08-22T03:07:46.331Z,13.82
2022-08-22T03:13:11.731Z,13.92
2022-08-22T03:18:41.989Z,14.17
2022-08-22T03:23:55.690Z,14.14
2022-08-22T03:29:06.887Z,14.37
2022-08-22T03:34:25.499Z,14.84
2022-08-22T03:39:47.003Z,14.82
2022-08-22T03:45:11.627Z,15.04
2022-08-22T03:50:47.879Z,15.28
2022-08-22T03:56:28.088Z,15.25
2022-08-22T04:01:43.510Z,15.04
2022-08-22T04:07:01.840Z,15.20
2022-08-22T04:12:41.648Z,15.48
2022-08-22T04:17:57.648Z,15.87
2022-08-22T04:23:19.376Z,16.02
2022-08-22T04:28:36.786Z,15.78
2022-08-22T04:33:51.168Z,15.63
2022-08-22T04:39:04.433Z,15.82
2022-08-22T04:44:33.103Z,16.00
2022-08-22T04:49:39.865Z,16.23
2022-08-22T04:55:09.108Z,16.09
2022-08-22T05:00:14.449Z,15.80
2022-08-22T05:05:24.269Z,15.76
2022-08-22T05:10:33.829Z,15.68
2022-08-22T05:15:43.215Z,15.72
2022-08-22T05:20:49.252Z,15.67
2022-08-22T05:25:55.914Z,16.15
2022-08-22T05:30:58.884Z,16.12
2022-08-22T05:36:26.284Z,16.27
2022-08-22T05:41:34.122Z,16.39
2022-08-22T05:46:46.166Z,16.62
2022-08-22T05:51:59.086Z,16.69
2022-08-22T05:57:26.773Z,16.90
2022-08-22T06:02:52.592Z,17.03
2022-08-22T06:08:45.046Z,17.51
2022-08-22T06:14:19.775Z,18.31
2022-08-22T06:19:27.785Z,18.08
2022-08-22T06:24:37.218Z,18.15
2022-08-22T06:29:49.682Z,18.47
2022-08-22T06:35:02.341Z,18.73
2022-08-22T06:40:09.136Z,18.41
2022-08-22T06:45:24.653Z,18.25
2022-08-22T06:50:32.280Z,18.29
2022-08-22T06:55:36.393Z,18.20
2022-08-22T07:00:42.951Z,18.13
2022-08-22T07:05:45.768Z,18.27
2022-08-22T07:10:56.275Z,18.84
2022-08-22T07:16:00.345Z,19.33
2022-08-22T07:21:05.220Z,19.37
2022-08-22T07:26:26.317Z,19.45
2022-08-22T07:31:47.223Z,19.51
2022-08-22T07:37:04.301Z,19.32
2022-08-22T07:42:14.901Z,18.04
2022-08-22T07:47:26.310Z,16.98
2022-08-22T07:52:36.068Z,16.35
2022-08-22T07:57:42.273Z,15.78
2022-08-22T08:02:57.057Z,15.60
2022-08-22T08:08:02.993Z,15.74
2022-08-22T08:13:08.686Z,15.89
2022-08-22T08:18:21.286Z,16.67
2022-08-22T08:23:25.459Z,17.36
2022-08-22T08:28:34.225Z,17.88
2022-08-22T08:33:41.706Z,18.18
2022-08-22T08:38:50.223Z,18.19
2022-08-22T08:44:31.221Z,18.24
2022-08-22T08:49:35.403Z,18.66
2022-08-22T08:54:56.003Z,18.93
2022-08-22T09:00:15.910Z,18.89
2022-08-22T09:05:40.253Z,18.51
2022-08-22T09:11:11.981Z,18.05
2022-08-22T09:16:47.307Z,17.68
2022-08-22T09:22:20.036Z,17.47
2022-08-22T09:27:46.508Z,17.41
2022-08-22T09:33:15.156Z,17.42
2022-08-22T09:38:40.412Z,17.84
2022-08-22T09:44:25.275Z,18.05
2022-08-22T09:49:58.783Z,18.73
2022-08-22T09:55:08.612Z,19.23
2022-08-22T10:00:27.390Z,20.20
2022-08-22T10:05:43.574Z,19.38
2022-08-22T10:11:19.610Z,16.99
2022-08-22T10:16:27.229Z,16.22
2022-08-22T10:21:39.690Z,15.74
2022-08-22T10:26:53.086Z,15.87
2022-08-22T10:32:14.644Z,16.26
2022-08-22T10:37:47.940Z,16.77
2022-08-22T10:43:02.386Z,16.87
2022-08-22T10:48:05.119Z,17.08
2022-08-22T10:53:36.366Z,16.98
2022-08-22T10:59:20.001Z,17.20
2022-08-22T11:04:39.656Z,17.76
2022-08-22T11:09:54.290Z,18.30
2022-08-22T11:15:06.239Z,18.63
2022-08-22T11:20:54.061Z,18.71
2022-08-22T11:26:05.568Z,18.82
2022-08-22T11:31:23.416Z,18.96
2022-08-22T11:36:50.314Z,18.81
2022-08-22T11:41:59.693Z,18.62
2022-08-22T11:47:03.519Z,18.34
2022-08-22T11:52:22.646Z,17.84
2022-08-22T11:57:44.805Z,17.60
2022-08-22T12:03:06.013Z,17.60
2022-08-22T12:08:15.202Z,17.60
2022-08-22T12:13:34.982Z,17.59
2022-08-22T12:19:15.771Z,17.75
2022-08-22T12:24:32.205Z,17.79
2022-08-22T12:29:51.853Z,17.62
2022-08-22T12:35:01.087Z,17.01
2022-08-22T12:40:27.324Z,16.73
2022-08-22T12:45:42.083Z,16.45
2022-08-22T12:50:59.767Z,15.90
2022-08-22T12:56:06.822Z,15.25
2022-08-22T13:01:13.449Z,15.07
2022-08-22T13:06:37.972Z,14.92
2022-08-22T13:11:42.553Z,14.58
2022-08-22T13:16:51.629Z,14.22
2022-08-22T13:22:24.425Z,14.09
2022-08-22T13:27:34.685Z,14.00
2022-08-22T13:32:46.093Z,13.51
2022-08-22T13:37:52.098Z,13.07
2022-08-22T13:43:12.313Z,12.66
2022-08-22T13:48:16.129Z,12.50
2022-08-22T13:53:48.944Z,12.29
2022-08-22T13:59:06.326Z,12.10
2022-08-22T14:04:32.044Z,11.92
2022-08-22T14:09:59.139Z,11.65
2022-08-22T14:15:08.340Z,11.46
2022-08-22T14:20:32.177Z,11.31
2022-08-22T14:25:39.108Z,11.20
2022-08-22T14:30:59.448Z,11.04
2022-08-22T14:36:15.473Z,10.90
2022-08-22T14:41:52.356Z,10.80
2022-08-22T14:47:04.357Z,10.49
2022-08-22T14:52:36.294Z,10.46
2022-08-22T14:57:54.870Z,10.45
2022-08-22T15:03:21.396Z,10.31
2022-08-22T15:08:33.273Z,10.16
2022-08-22T15:13:37.523Z,10.06
2022-08-22T15:18:41.588Z,10.01
2022-08-22T15:24:03.685Z,10.03
2022-08-22T15:29:21.178Z,10.12
2022-08-22T15:34:24.411Z,10.04
2022-08-22T15:39:32.664Z,9.81
2022-08-22T15:44:44.383Z,9.73
2022-08-22T15:49:58.644Z,9.75
2022-08-22T15:55:19.948Z,9.66
2022-08-22T16:00:36.375Z,9.61
2022-08-22T16:05:55.357Z,9.37
2022-08-22T16:11:17.065Z,9.32
2022-08-22T16:16:35.124Z,9.30
2022-08-22T16:21:59.900Z,9.26
2022-08-22T16:27:25.626Z,9.18
2022-08-22T16:32:28.924Z,9.15
2022-08-22T16:37:36.717Z,9.16
2022-08-22T16:42:46.840Z,9.13
2022-08-22T16:47:58.149Z,9.05
2022-08-22T16:53:21.703Z,9.09
2022-08-22T16:58:57.513Z,8.99
2022-08-22T17:04:28.521Z,8.72
2022-08-22T17:09:52.569Z,8.53
2022-08-22T17:15:22.686Z,8.41
2022-08-22T17:20:58.855Z,8.35
2022-08-22T17:26:08.903Z,8.45
2022-08-22T17:31:31.896Z,8.49
2022-08-22T17:36:40.481Z,8.41
2022-08-22T17:42:21.158Z,8.29
2022-08-22T17:47:31.000Z,8.33
2022-08-22T17:52:49.748Z,8.28
2022-08-22T17:58:05.152Z,8.22
2022-08-22T18:03:09.209Z,7.97
2022-08-22T18:14:05.150Z,8.16
2022-08-22T18:19:29.254Z,8.23
2022-08-22T18:25:19.450Z,8.16
2022-08-22T18:30:27.852Z,8.11
2022-08-22T18:35:33.382Z,8.07
2022-08-22T18:40:54.029Z,8.02
2022-08-22T18:46:02.963Z,7.93
2022-08-22T18:51:32.218Z,7.89
2022-08-22T18:57:18.858Z,7.78
2022-08-22T19:03:00.991Z,7.66
2022-08-22T19:08:17.028Z,7.57
2022-08-22T19:13:22.933Z,7.45
2022-08-22T19:18:43.586Z,7.35
2022-08-22T19:23:48.877Z,7.36
2022-08-22T19:28:53.992Z,7.31
2022-08-22T19:34:20.067Z,7.33
2022-08-22T19:39:41.441Z,7.22
2022-08-22T19:44:47.524Z,7.27
2022-08-22T19:50:17.848Z,7.19
2022-08-22T19:55:29.602Z,7.09
2022-08-22T20:01:00.203Z,6.85
2022-08-22T20:06:43.529Z,6.72
2022-08-22T20:12:13.278Z,6.68
2022-08-22T20:17:27.146Z,6.73
2022-08-22T20:23:05.650Z,6.75
2022-08-22T20:28:10.284Z,6.75
2022-08-22T20:33:27.984Z,6.84
2022-08-22T20:38:40.254Z,6.81
2022-08-22T20:43:46.879Z,6.65
2022-08-22T20:48:51.968Z,6.48
2022-08-22T20:54:10.291Z,6.32
2022-08-22T20:59:36.190Z,6.32
2022-08-22T21:04:46.716Z,6.24
2022-08-22T21:10:22.614Z,6.20
2022-08-22T21:15:41.015Z,6.10
2022-08-22T21:20:43.790Z,6.06
2022-08-22T21:25:56.419Z,5.99
2022-08-22T21:31:00.086Z,5.98
2022-08-22T21:36:02.916Z,5.99
2022-08-22T21:41:06.411Z,5.93
2022-08-22T21:46:09.182Z,5.83
2022-08-22T21:51:45.347Z,5.75
2022-08-22T21:56:49.715Z,5.71
2022-08-22T22:01:53.850Z,5.67
2022-08-22T22:06:58.366Z,5.54
2022-08-22T22:12:01.469Z,5.60
2022-08-22T22:17:04.447Z,5.62
2022-08-22T22:22:07.345Z,5.43
2022-08-22T22:27:14.931Z,5.53
2022-08-22T22:32:19.653Z,5.41
2022-08-22T22:37:22.385Z,5.39
2022-08-22T22:42:25.214Z,5.37
2022-08-22T22:47:29.987Z,5.30
2022-08-22T22:52:33.093Z,5.36
2022-08-22T22:57:42.488Z,5.31
2022-08-22T23:02:45.570Z,5.27
2022-08-22T23:07:48.339Z,5.34
2022-08-22T23:12:51.149Z,5.31
2022-08-22T23:17:54.015Z,5.23
2022-08-22T23:22:56.852Z,5.11
2022-08-22T23:28:00.116Z,5.25
2022-08-22T23:33:03.367Z,5.37
2022-08-22T23:38:06.181Z,5.43
2022-08-22T23:43:08.995Z,5.48
2022-08-22T23:48:11.885Z,5.52
2022-08-22T23:53:14.680Z,5.50
2022-08-22T23:58:17.501Z,5.63
